Aviation

Metar/Speci

station

VRMH

METAR VRMH 150400Z 26009KT 9999 FEW017TCU BKN240 30/26 Q1009=

22 minutes ago

VRMM

METAR VRMM 150400Z 25011KT 9999 FEW018TCU BKN270 31/27 Q1008 NOSIG=

30 minutes ago

VRMK

METAR VRMK 150400Z 23004KT 9999 FEW018 BKN270 31/26 Q1009=

29 minutes ago

VRMT

METAR VRMT 150400Z 23004KT 9999 SCT017 FEW018CB 31/27 Q1009 CB SW=

32 minutes ago

VRMG

METAR VRMG 150400Z 23006KT 9999 FEW018 FEW019CB BKN260 31/26 Q1009 CB SW NOSIG=

32 minutes ago

Synop

station

43533

AAXX 15034 43533 42462 72710 10294 20263 30076 40078 83248 333 20261 59012 83817 87275 555 10511=

1 hour ago

43555

AAXX 15034 43555 42470 72512 10305 20259 30081 40083 81208 333 20290 59010 81818 87277 555 11274=

1 hour ago

43577

AAXX 15034 43577 42465 72304 10302 20265 30087 40089 82208 333 20282 59009 82818 87277 555 11641=

1 hour ago

43588

AAXX 15034 43588 42465 72304 10299 20262 30089 40090 82238 333 20252 59006 82818 86276 555 11165=

1 hour ago

43599

AAXX 15034 43599 42460 62005 10304 20253 30091 40093 83902 333 20252 59009 82818 81919 86076 555 11267=

1 hour ago

Tafs

station

VRMH

TAF VRMH 142300Z 1500/1606 29014KT 9999 SCT018TCU SCT100 TEMPO 1500/1506 4000 TSRA FEW017CB=

5 hours ago

VRMM

TAF VRMM 142300Z 1500/1606 28015KT 9999 SCT018TCU TEMPO 1500/1506 FEW017CB=

5 hours ago

VRMK

TAF VRMK 142300Z 1500/1524 23008KT 9999 SCT018TCU TEMPO 1500/1506 FEW017CB=

5 hours ago

VRMT

TAF VRMT 142300Z 1500/1524 23007KT 9999 SCT018TCU TEMPO 1500/1506 FEW017CB=

5 hours ago

VRMG

TAF VRMG 142300Z 1500/1606 23007KT 9999 SCT018TCU TEMPO 1500/1506 FEW017CB=

5 hours ago

Sigmet

Flight folders

No flight folder available at the moment.